sensor_id;sensor_type;location;lat;lon;timestamp;P1;durP1;ratioP1;P2;durP2;ratioP2
1410;SDS011;700;51.906;8.404;2023-06-26T00:03:08;11.40;;;8.80;;
1410;SDS011;700;51.906;8.404;2023-06-26T00:08:09;8.43;;;7.63;;
1410;SDS011;700;51.906;8.404;2023-06-26T00:13:12;9.33;;;8.43;;
1410;SDS011;700;51.906;8.404;2023-06-26T00:18:12;9.17;;;8.27;;
1410;SDS011;700;51.906;8.404;2023-06-26T00:23:13;9.83;;;8.77;;
1410;SDS011;700;51.906;8.404;2023-06-26T00:28:16;8.43;;;7.63;;
1410;SDS011;700;51.906;8.404;2023-06-26T00:33:19;9.10;;;8.13;;
1410;SDS011;700;51.906;8.404;2023-06-26T00:38:22;10.00;;;9.00;;
1410;SDS011;700;51.906;8.404;2023-06-26T00:43:23;9.83;;;8.90;;
1410;SDS011;700;51.906;8.404;2023-06-26T00:48:23;9.90;;;8.77;;
1410;SDS011;700;51.906;8.404;2023-06-26T00:53:26;9.33;;;8.43;;
1410;SDS011;700;51.906;8.404;2023-06-26T00:58:32;11.13;;;9.10;;
1410;SDS011;700;51.906;8.404;2023-06-26T01:03:33;9.30;;;8.23;;
1410;SDS011;700;51.906;8.404;2023-06-26T01:08:40;10.63;;;7.73;;
1410;SDS011;700;51.906;8.404;2023-06-26T01:13:42;8.67;;;7.77;;
1410;SDS011;700;51.906;8.404;2023-06-26T01:18:46;10.20;;;8.20;;
1410;SDS011;700;51.906;8.404;2023-06-26T01:23:59;10.73;;;7.93;;
1410;SDS011;700;51.906;8.404;2023-06-26T01:29:09;8.87;;;7.97;;
1410;SDS011;700;51.906;8.404;2023-06-26T01:34:15;9.60;;;8.60;;
1410;SDS011;700;51.906;8.404;2023-06-26T01:39:19;9.63;;;8.13;;
1410;SDS011;700;51.906;8.404;2023-06-26T01:44:32;9.23;;;8.30;;
1410;SDS011;700;51.906;8.404;2023-06-26T02:00:21;11.17;;;9.10;;
1410;SDS011;700;51.906;8.404;2023-06-26T02:05:26;9.53;;;8.53;;
1410;SDS011;700;51.906;8.404;2023-06-26T02:10:27;8.87;;;7.97;;
1410;SDS011;700;51.906;8.404;2023-06-26T02:15:28;9.80;;;8.50;;
1410;SDS011;700;51.906;8.404;2023-06-26T02:20:30;8.70;;;7.80;;
1410;SDS011;700;51.906;8.404;2023-06-26T02:25:33;10.20;;;8.73;;
1410;SDS011;700;51.906;8.404;2023-06-26T02:30:36;9.73;;;8.63;;
1410;SDS011;700;51.906;8.404;2023-06-26T02:35:39;9.67;;;8.53;;
1410;SDS011;700;51.906;8.404;2023-06-26T02:40:40;10.20;;;8.60;;
1410;SDS011;700;51.906;8.404;2023-06-26T02:45:42;10.80;;;9.40;;
1410;SDS011;700;51.906;8.404;2023-06-26T02:50:43;10.77;;;8.80;;
1410;SDS011;700;51.906;8.404;2023-06-26T02:55:45;10.37;;;8.13;;
1410;SDS011;700;51.906;8.404;2023-06-26T03:00:47;9.83;;;8.83;;
1410;SDS011;700;51.906;8.404;2023-06-26T03:05:50;9.03;;;7.97;;
1410;SDS011;700;51.906;8.404;2023-06-26T03:10:51;11.70;;;8.37;;
1410;SDS011;700;51.906;8.404;2023-06-26T03:15:52;9.47;;;8.47;;
1410;SDS011;700;51.906;8.404;2023-06-26T03:20:55;10.37;;;8.87;;
1410;SDS011;700;51.906;8.404;2023-06-26T03:25:56;11.00;;;8.43;;
1410;SDS011;700;51.906;8.404;2023-06-26T03:30:56;9.53;;;7.63;;
1410;SDS011;700;51.906;8.404;2023-06-26T03:35:59;11.27;;;8.67;;
1410;SDS011;700;51.906;8.404;2023-06-26T03:41:00;10.00;;;8.47;;
1410;SDS011;700;51.906;8.404;2023-06-26T03:46:01;9.97;;;8.77;;
1410;SDS011;700;51.906;8.404;2023-06-26T03:51:01;11.67;;;8.90;;
1410;SDS011;700;51.906;8.404;2023-06-26T03:56:05;10.80;;;8.87;;
1410;SDS011;700;51.906;8.404;2023-06-26T04:01:08;9.07;;;8.10;;
1410;SDS011;700;51.906;8.404;2023-06-26T04:06:11;9.70;;;8.23;;
1410;SDS011;700;51.906;8.404;2023-06-26T04:11:14;10.87;;;9.77;;
1410;SDS011;700;51.906;8.404;2023-06-26T04:16:15;12.13;;;8.43;;
1410;SDS011;700;51.906;8.404;2023-06-26T04:21:18;11.53;;;8.83;;
1410;SDS011;700;51.906;8.404;2023-06-26T04:26:19;8.87;;;7.87;;
1410;SDS011;700;51.906;8.404;2023-06-26T04:31:20;9.27;;;7.53;;
1410;SDS011;700;51.906;8.404;2023-06-26T04:36:22;11.00;;;8.93;;
1410;SDS011;700;51.906;8.404;2023-06-26T04:41:22;11.33;;;8.70;;
1410;SDS011;700;51.906;8.404;2023-06-26T04:46:23;10.40;;;8.10;;
1410;SDS011;700;51.906;8.404;2023-06-26T04:51:24;10.80;;;9.70;;
1410;SDS011;700;51.906;8.404;2023-06-26T04:56:28;10.20;;;7.80;;
1410;SDS011;700;51.906;8.404;2023-06-26T05:01:31;11.20;;;7.90;;
1410;SDS011;700;51.906;8.404;2023-06-26T05:06:32;10.97;;;8.13;;
1410;SDS011;700;51.906;8.404;2023-06-26T05:11:32;9.60;;;7.50;;
1410;SDS011;700;51.906;8.404;2023-06-26T05:16:38;9.40;;;7.30;;
1410;SDS011;700;51.906;8.404;2023-06-26T05:21:42;10.13;;;7.60;;
1410;SDS011;700;51.906;8.404;2023-06-26T05:26:47;11.53;;;8.63;;
1410;SDS011;700;51.906;8.404;2023-06-26T05:31:51;11.70;;;8.50;;
1410;SDS011;700;51.906;8.404;2023-06-26T05:36:53;7.50;;;6.53;;
1410;SDS011;700;51.906;8.404;2023-06-26T05:41:57;9.63;;;7.40;;
1410;SDS011;700;51.906;8.404;2023-06-26T05:46:58;8.27;;;6.00;;
1410;SDS011;700;51.906;8.404;2023-06-26T05:51:59;9.73;;;8.20;;
1410;SDS011;700;51.906;8.404;2023-06-26T05:57:00;7.20;;;6.37;;
1410;SDS011;700;51.906;8.404;2023-06-26T06:02:03;7.70;;;6.37;;
1410;SDS011;700;51.906;8.404;2023-06-26T06:07:04;9.07;;;6.87;;
1410;SDS011;700;51.906;8.404;2023-06-26T06:12:07;9.20;;;8.00;;
1410;SDS011;700;51.906;8.404;2023-06-26T06:17:08;8.80;;;6.73;;
1410;SDS011;700;51.906;8.404;2023-06-26T06:22:11;8.53;;;7.20;;
1410;SDS011;700;51.906;8.404;2023-06-26T06:27:14;9.50;;;6.97;;
1410;SDS011;700;51.906;8.404;2023-06-26T06:32:17;7.43;;;6.40;;
1410;SDS011;700;51.906;8.404;2023-06-26T06:37:18;10.33;;;7.50;;
1410;SDS011;700;51.906;8.404;2023-06-26T06:42:23;9.30;;;7.50;;
1410;SDS011;700;51.906;8.404;2023-06-26T06:47:23;9.97;;;7.10;;
1410;SDS011;700;51.906;8.404;2023-06-26T06:52:26;9.50;;;7.07;;
1410;SDS011;700;51.906;8.404;2023-06-26T06:57:27;9.73;;;7.77;;
1410;SDS011;700;51.906;8.404;2023-06-26T07:02:27;9.17;;;8.20;;
1410;SDS011;700;51.906;8.404;2023-06-26T07:07:28;8.60;;;7.70;;
1410;SDS011;700;51.906;8.404;2023-06-26T07:12:34;10.17;;;7.70;;
1410;SDS011;700;51.906;8.404;2023-06-26T07:17:35;9.40;;;7.87;;
1410;SDS011;700;51.906;8.404;2023-06-26T07:22:37;8.80;;;7.53;;
1410;SDS011;700;51.906;8.404;2023-06-26T07:27:41;10.00;;;7.73;;
1410;SDS011;700;51.906;8.404;2023-06-26T07:32:45;10.27;;;8.67;;
1410;SDS011;700;51.906;8.404;2023-06-26T07:37:45;8.53;;;6.63;;
1410;SDS011;700;51.906;8.404;2023-06-26T07:42:46;11.20;;;6.87;;
1410;SDS011;700;51.906;8.404;2023-06-26T07:47:50;9.93;;;7.10;;
1410;SDS011;700;51.906;8.404;2023-06-26T07:52:50;8.87;;;7.10;;
1410;SDS011;700;51.906;8.404;2023-06-26T07:57:56;10.43;;;7.03;;
1410;SDS011;700;51.906;8.404;2023-06-26T08:02:59;10.40;;;8.50;;
1410;SDS011;700;51.906;8.404;2023-06-26T08:07:59;9.77;;;7.97;;
1410;SDS011;700;51.906;8.404;2023-06-26T08:13:02;11.20;;;8.70;;
1410;SDS011;700;51.906;8.404;2023-06-26T08:18:07;9.63;;;7.03;;
1410;SDS011;700;51.906;8.404;2023-06-26T08:23:10;12.00;;;9.00;;
1410;SDS011;700;51.906;8.404;2023-06-26T08:28:10;12.97;;;8.90;;
1410;SDS011;700;51.906;8.404;2023-06-26T08:33:13;12.10;;;8.00;;
1410;SDS011;700;51.906;8.404;2023-06-26T08:38:14;11.77;;;8.07;;
1410;SDS011;700;51.906;8.404;2023-06-26T08:43:14;11.90;;;7.33;;
1410;SDS011;700;51.906;8.404;2023-06-26T08:48:15;10.10;;;7.77;;
1410;SDS011;700;51.906;8.404;2023-06-26T08:58:35;11.47;;;7.93;;
1410;SDS011;700;51.906;8.404;2023-06-26T09:03:40;10.43;;;7.87;;
1410;SDS011;700;51.906;8.404;2023-06-26T09:08:41;12.90;;;7.70;;
1410;SDS011;700;51.906;8.404;2023-06-26T09:13:42;12.47;;;8.67;;
1410;SDS011;700;51.906;8.404;2023-06-26T09:18:45;11.37;;;6.20;;
1410;SDS011;700;51.906;8.404;2023-06-26T09:23:49;11.83;;;8.47;;
1410;SDS011;700;51.906;8.404;2023-06-26T09:28:53;9.60;;;6.10;;
1410;SDS011;700;51.906;8.404;2023-06-26T09:33:58;11.07;;;6.40;;
1410;SDS011;700;51.906;8.404;2023-06-26T09:39:03;8.93;;;6.27;;
1410;SDS011;700;51.906;8.404;2023-06-26T09:44:05;11.20;;;6.17;;
1410;SDS011;700;51.906;8.404;2023-06-26T09:49:06;9.80;;;6.80;;
1410;SDS011;700;51.906;8.404;2023-06-26T09:54:09;9.60;;;5.80;;
1410;SDS011;700;51.906;8.404;2023-06-26T09:59:09;10.83;;;6.47;;
1410;SDS011;700;51.906;8.404;2023-06-26T10:04:10;8.77;;;6.13;;
1410;SDS011;700;51.906;8.404;2023-06-26T10:09:14;11.37;;;6.10;;
1410;SDS011;700;51.906;8.404;2023-06-26T10:14:18;8.57;;;5.83;;
1410;SDS011;700;51.906;8.404;2023-06-26T10:19:20;9.87;;;4.80;;
1410;SDS011;700;51.906;8.404;2023-06-26T10:24:26;9.63;;;5.37;;
1410;SDS011;700;51.906;8.404;2023-06-26T10:29:31;9.63;;;5.40;;
1410;SDS011;700;51.906;8.404;2023-06-26T10:34:34;9.70;;;6.03;;
1410;SDS011;700;51.906;8.404;2023-06-26T10:39:53;10.00;;;5.20;;
1410;SDS011;700;51.906;8.404;2023-06-26T10:44:56;5.97;;;4.60;;
1410;SDS011;700;51.906;8.404;2023-06-26T10:50:28;6.30;;;4.93;;
1410;SDS011;700;51.906;8.404;2023-06-26T10:55:30;8.00;;;4.47;;
1410;SDS011;700;51.906;8.404;2023-06-26T11:00:31;7.73;;;4.70;;
1410;SDS011;700;51.906;8.404;2023-06-26T11:05:32;10.00;;;4.00;;
1410;SDS011;700;51.906;8.404;2023-06-26T11:10:52;8.27;;;4.17;;
1410;SDS011;700;51.906;8.404;2023-06-26T11:15:55;8.77;;;4.03;;
1410;SDS011;700;51.906;8.404;2023-06-26T11:21:04;6.97;;;3.90;;
1410;SDS011;700;51.906;8.404;2023-06-26T11:26:17;6.30;;;3.90;;
1410;SDS011;700;51.906;8.404;2023-06-26T11:31:24;7.20;;;3.77;;
1410;SDS011;700;51.906;8.404;2023-06-26T11:36:26;6.53;;;3.33;;
1410;SDS011;700;51.906;8.404;2023-06-26T11:41:30;5.90;;;3.57;;
1410;SDS011;700;51.906;8.404;2023-06-26T11:46:33;4.43;;;2.73;;
1410;SDS011;700;51.906;8.404;2023-06-26T11:51:35;5.90;;;3.50;;
1410;SDS011;700;51.906;8.404;2023-06-26T11:56:38;5.20;;;2.87;;
1410;SDS011;700;51.906;8.404;2023-06-26T12:01:39;5.53;;;3.27;;
1410;SDS011;700;51.906;8.404;2023-06-26T12:06:47;6.07;;;2.83;;
1410;SDS011;700;51.906;8.404;2023-06-26T12:11:53;6.33;;;3.13;;
1410;SDS011;700;51.906;8.404;2023-06-26T12:16:56;5.07;;;2.77;;
1410;SDS011;700;51.906;8.404;2023-06-26T12:22:08;5.10;;;2.77;;
1410;SDS011;700;51.906;8.404;2023-06-26T12:27:18;4.50;;;2.47;;
1410;SDS011;700;51.906;8.404;2023-06-26T12:32:24;5.13;;;2.53;;
1410;SDS011;700;51.906;8.404;2023-06-26T12:37:28;5.20;;;2.87;;
1410;SDS011;700;51.906;8.404;2023-06-26T12:42:32;5.77;;;2.50;;
1410;SDS011;700;51.906;8.404;2023-06-26T12:47:33;4.87;;;2.70;;
1410;SDS011;700;51.906;8.404;2023-06-26T12:52:38;4.77;;;3.00;;
1410;SDS011;700;51.906;8.404;2023-06-26T12:57:38;8.07;;;2.90;;
1410;SDS011;700;51.906;8.404;2023-06-26T13:02:41;5.67;;;4.43;;
1410;SDS011;700;51.906;8.404;2023-06-26T13:07:42;4.30;;;2.60;;
1410;SDS011;700;51.906;8.404;2023-06-26T13:12:43;4.47;;;2.73;;
1410;SDS011;700;51.906;8.404;2023-06-26T13:17:45;5.40;;;2.73;;
1410;SDS011;700;51.906;8.404;2023-06-26T13:22:46;4.60;;;2.63;;
1410;SDS011;700;51.906;8.404;2023-06-26T13:27:47;5.53;;;2.73;;
1410;SDS011;700;51.906;8.404;2023-06-26T13:32:50;4.00;;;2.20;;
1410;SDS011;700;51.906;8.404;2023-06-26T13:37:51;7.67;;;2.67;;
1410;SDS011;700;51.906;8.404;2023-06-26T13:42:53;4.33;;;2.10;;
1410;SDS011;700;51.906;8.404;2023-06-26T13:47:54;4.83;;;2.50;;
1410;SDS011;700;51.906;8.404;2023-06-26T13:52:57;5.43;;;2.57;;
1410;SDS011;700;51.906;8.404;2023-06-26T13:57:58;4.90;;;2.57;;
1410;SDS011;700;51.906;8.404;2023-06-26T14:03:02;6.57;;;1.83;;
1410;SDS011;700;51.906;8.404;2023-06-26T14:08:04;4.33;;;2.10;;
1410;SDS011;700;51.906;8.404;2023-06-26T14:13:09;5.40;;;2.47;;
1410;SDS011;700;51.906;8.404;2023-06-26T14:18:14;4.50;;;2.10;;
1410;SDS011;700;51.906;8.404;2023-06-26T14:23:17;3.80;;;2.10;;
1410;SDS011;700;51.906;8.404;2023-06-26T14:28:17;3.67;;;1.67;;
1410;SDS011;700;51.906;8.404;2023-06-26T14:33:18;5.67;;;2.60;;
1410;SDS011;700;51.906;8.404;2023-06-26T14:38:21;4.90;;;1.60;;
1410;SDS011;700;51.906;8.404;2023-06-26T14:43:21;6.53;;;1.90;;
1410;SDS011;700;51.906;8.404;2023-06-26T14:48:22;4.73;;;1.50;;
1410;SDS011;700;51.906;8.404;2023-06-26T14:53:23;6.23;;;2.23;;
1410;SDS011;700;51.906;8.404;2023-06-26T14:58:26;4.53;;;1.50;;
1410;SDS011;700;51.906;8.404;2023-06-26T15:03:27;4.97;;;2.43;;
1410;SDS011;700;51.906;8.404;2023-06-26T15:08:30;4.00;;;1.60;;
1410;SDS011;700;51.906;8.404;2023-06-26T15:13:32;4.40;;;1.40;;
1410;SDS011;700;51.906;8.404;2023-06-26T15:18:32;4.10;;;1.50;;
1410;SDS011;700;51.906;8.404;2023-06-26T15:23:35;4.90;;;1.70;;
1410;SDS011;700;51.906;8.404;2023-06-26T15:28:38;6.07;;;1.67;;
1410;SDS011;700;51.906;8.404;2023-06-26T15:33:39;3.33;;;1.53;;
1410;SDS011;700;51.906;8.404;2023-06-26T15:38:42;4.00;;;1.60;;
1410;SDS011;700;51.906;8.404;2023-06-26T15:43:43;7.57;;;1.80;;
1410;SDS011;700;51.906;8.404;2023-06-26T15:48:46;4.70;;;1.77;;
1410;SDS011;700;51.906;8.404;2023-06-26T15:53:49;5.10;;;1.70;;
1410;SDS011;700;51.906;8.404;2023-06-26T15:58:50;3.77;;;1.90;;
1410;SDS011;700;51.906;8.404;2023-06-26T16:03:50;4.83;;;1.73;;
1410;SDS011;700;51.906;8.404;2023-06-26T16:08:51;5.17;;;2.17;;
1410;SDS011;700;51.906;8.404;2023-06-26T16:13:52;3.30;;;1.70;;
1410;SDS011;700;51.906;8.404;2023-06-26T16:18:55;3.57;;;1.50;;
1410;SDS011;700;51.906;8.404;2023-06-26T16:24:00;4.43;;;1.30;;
1410;SDS011;700;51.906;8.404;2023-06-26T16:29:03;4.10;;;1.40;;
1410;SDS011;700;51.906;8.404;2023-06-26T16:34:06;4.30;;;2.30;;
1410;SDS011;700;51.906;8.404;2023-06-26T16:39:07;5.50;;;1.87;;
1410;SDS011;700;51.906;8.404;2023-06-26T16:44:16;3.30;;;1.50;;
1410;SDS011;700;51.906;8.404;2023-06-26T16:49:19;4.37;;;1.60;;
1410;SDS011;700;51.906;8.404;2023-06-26T16:54:19;5.03;;;2.30;;
1410;SDS011;700;51.906;8.404;2023-06-26T16:59:20;6.90;;;1.80;;
1410;SDS011;700;51.906;8.404;2023-06-26T17:04:22;4.60;;;1.40;;
1410;SDS011;700;51.906;8.404;2023-06-26T17:09:25;4.47;;;1.50;;
1410;SDS011;700;51.906;8.404;2023-06-26T17:14:26;4.90;;;1.50;;
1410;SDS011;700;51.906;8.404;2023-06-26T17:19:26;6.57;;;1.33;;
1410;SDS011;700;51.906;8.404;2023-06-26T17:24:34;4.33;;;1.60;;
1410;SDS011;700;51.906;8.404;2023-06-26T17:29:34;3.10;;;1.30;;
1410;SDS011;700;51.906;8.404;2023-06-26T17:34:35;4.13;;;1.47;;
1410;SDS011;700;51.906;8.404;2023-06-26T17:39:36;3.57;;;1.37;;
1410;SDS011;700;51.906;8.404;2023-06-26T17:44:36;5.40;;;2.60;;
1410;SDS011;700;51.906;8.404;2023-06-26T17:49:37;4.17;;;1.53;;
1410;SDS011;700;51.906;8.404;2023-06-26T17:54:39;4.13;;;1.13;;
1410;SDS011;700;51.906;8.404;2023-06-26T17:59:39;3.97;;;1.13;;
1410;SDS011;700;51.906;8.404;2023-06-26T18:04:40;6.23;;;1.30;;
1410;SDS011;700;51.906;8.404;2023-06-26T18:09:41;3.23;;;1.20;;
1410;SDS011;700;51.906;8.404;2023-06-26T18:14:44;5.33;;;1.20;;
1410;SDS011;700;51.906;8.404;2023-06-26T18:19:44;3.60;;;1.10;;
1410;SDS011;700;51.906;8.404;2023-06-26T18:24:45;3.00;;;1.10;;
1410;SDS011;700;51.906;8.404;2023-06-26T18:29:46;4.53;;;2.40;;
1410;SDS011;700;51.906;8.404;2023-06-26T18:34:46;5.00;;;1.57;;
1410;SDS011;700;51.906;8.404;2023-06-26T18:39:47;5.80;;;1.53;;
1410;SDS011;700;51.906;8.404;2023-06-26T18:44:47;4.50;;;1.50;;
1410;SDS011;700;51.906;8.404;2023-06-26T18:49:51;4.20;;;1.30;;
1410;SDS011;700;51.906;8.404;2023-06-26T18:54:52;5.00;;;1.50;;
1410;SDS011;700;51.906;8.404;2023-06-26T18:59:55;3.60;;;1.17;;
1410;SDS011;700;51.906;8.404;2023-06-26T19:04:58;8.53;;;1.70;;
1410;SDS011;700;51.906;8.404;2023-06-26T19:10:03;4.03;;;1.20;;
1410;SDS011;700;51.906;8.404;2023-06-26T19:15:04;3.03;;;1.00;;
1410;SDS011;700;51.906;8.404;2023-06-26T19:20:05;4.23;;;1.37;;
1410;SDS011;700;51.906;8.404;2023-06-26T19:25:07;4.30;;;1.30;;
1410;SDS011;700;51.906;8.404;2023-06-26T19:30:08;4.70;;;1.23;;
1410;SDS011;700;51.906;8.404;2023-06-26T19:35:11;3.00;;;1.10;;
1410;SDS011;700;51.906;8.404;2023-06-26T19:40:16;3.00;;;1.33;;
1410;SDS011;700;51.906;8.404;2023-06-26T19:45:17;3.50;;;1.30;;
1410;SDS011;700;51.906;8.404;2023-06-26T19:50:20;4.40;;;1.23;;
1410;SDS011;700;51.906;8.404;2023-06-26T19:55:23;4.73;;;1.50;;
1410;SDS011;700;51.906;8.404;2023-06-26T20:00:24;5.37;;;1.40;;
1410;SDS011;700;51.906;8.404;2023-06-26T20:05:24;4.53;;;1.23;;
1410;SDS011;700;51.906;8.404;2023-06-26T20:10:27;3.97;;;1.40;;
1410;SDS011;700;51.906;8.404;2023-06-26T20:15:28;3.90;;;1.30;;
1410;SDS011;700;51.906;8.404;2023-06-26T20:20:31;4.03;;;1.50;;
1410;SDS011;700;51.906;8.404;2023-06-26T20:25:31;4.63;;;1.40;;
1410;SDS011;700;51.906;8.404;2023-06-26T20:30:33;3.60;;;1.33;;
1410;SDS011;700;51.906;8.404;2023-06-26T20:35:34;4.30;;;1.40;;
1410;SDS011;700;51.906;8.404;2023-06-26T20:40:35;4.87;;;1.40;;
1410;SDS011;700;51.906;8.404;2023-06-26T20:45:35;4.93;;;1.50;;
1410;SDS011;700;51.906;8.404;2023-06-26T20:50:39;3.27;;;1.47;;
1410;SDS011;700;51.906;8.404;2023-06-26T20:55:42;4.43;;;1.43;;
1410;SDS011;700;51.906;8.404;2023-06-26T21:00:45;3.90;;;1.47;;
1410;SDS011;700;51.906;8.404;2023-06-26T21:05:45;4.67;;;1.50;;
1410;SDS011;700;51.906;8.404;2023-06-26T21:10:46;4.00;;;1.63;;
1410;SDS011;700;51.906;8.404;2023-06-26T21:15:47;3.77;;;1.43;;
1410;SDS011;700;51.906;8.404;2023-06-26T21:20:48;4.60;;;1.40;;
1410;SDS011;700;51.906;8.404;2023-06-26T21:25:48;4.10;;;1.60;;
1410;SDS011;700;51.906;8.404;2023-06-26T21:30:49;5.83;;;1.40;;
1410;SDS011;700;51.906;8.404;2023-06-26T21:35:50;3.73;;;1.40;;
1410;SDS011;700;51.906;8.404;2023-06-26T21:40:53;4.57;;;1.60;;
1410;SDS011;700;51.906;8.404;2023-06-26T21:45:53;3.07;;;1.20;;
1410;SDS011;700;51.906;8.404;2023-06-26T21:50:54;5.97;;;1.40;;
1410;SDS011;700;51.906;8.404;2023-06-26T21:55:55;3.43;;;1.60;;
1410;SDS011;700;51.906;8.404;2023-06-26T22:00:57;4.10;;;1.57;;
1410;SDS011;700;51.906;8.404;2023-06-26T22:05:58;3.77;;;1.60;;
1410;SDS011;700;51.906;8.404;2023-06-26T22:11:01;5.70;;;2.20;;
1410;SDS011;700;51.906;8.404;2023-06-26T22:16:02;4.87;;;2.27;;
1410;SDS011;700;51.906;8.404;2023-06-26T22:21:02;5.30;;;1.87;;
1410;SDS011;700;51.906;8.404;2023-06-26T22:26:03;9.93;;;2.17;;
1410;SDS011;700;51.906;8.404;2023-06-26T22:31:04;3.80;;;1.50;;
1410;SDS011;700;51.906;8.404;2023-06-26T22:36:04;6.50;;;1.63;;
1410;SDS011;700;51.906;8.404;2023-06-26T22:41:05;3.63;;;1.60;;
1410;SDS011;700;51.906;8.404;2023-06-26T22:46:06;6.37;;;1.67;;
1410;SDS011;700;51.906;8.404;2023-06-26T22:51:06;5.10;;;1.57;;
1410;SDS011;700;51.906;8.404;2023-06-26T22:56:07;5.90;;;1.37;;
1410;SDS011;700;51.906;8.404;2023-06-26T23:01:10;3.67;;;1.90;;
1410;SDS011;700;51.906;8.404;2023-06-26T23:06:13;6.47;;;1.87;;
1410;SDS011;700;51.906;8.404;2023-06-26T23:11:21;5.30;;;1.83;;
1410;SDS011;700;51.906;8.404;2023-06-26T23:16:22;4.50;;;1.70;;
1410;SDS011;700;51.906;8.404;2023-06-26T23:21:23;5.20;;;2.00;;
1410;SDS011;700;51.906;8.404;2023-06-26T23:26:26;6.93;;;2.00;;
1410;SDS011;700;51.906;8.404;2023-06-26T23:31:30;4.73;;;2.30;;
1410;SDS011;700;51.906;8.404;2023-06-26T23:36:36;4.37;;;2.10;;
1410;SDS011;700;51.906;8.404;2023-06-26T23:41:37;4.03;;;2.13;;
1410;SDS011;700;51.906;8.404;2023-06-26T23:46:43;5.60;;;1.90;;
1410;SDS011;700;51.906;8.404;2023-06-26T23:51:48;5.70;;;3.07;;
1410;SDS011;700;51.906;8.404;2023-06-26T23:56:50;5.10;;;2.23;;
